Cadzand, Netherlands

7:18 AM CEST on July 30, 2015 (GMT +0200)
Knokke Heist Oostkust | | Change Station
CLOSE
Current Station
Personal Weather Station
Location: Heist aan zee, West-Vlaanderen
Elevation: 5 ft
Nearby Weather Stations

Elev 5 ft 51.32 °N, 3.29 °E | Updated 39 seconds ago

Light Thunderstorms and Rain
Light Thunderstorm Rain
54.2 °F
Feels Like 54.2 °F
N
0.0
Wind Variable Wind from SE
Gusts 0.0 mph

Today
High -- | Low -- °F
--% Chance of Precip.
Yesterday
High -- | Low -- °F
Precip. -- in
6:07 AM 9:37 PM
Waxing Gibbous, 98% visible
Pressure 29.98 in
Visibility 4.3 miles
Clouds Few 1500 ft
Mostly Cloudy 3000 ft
Mostly Cloudy 8000 ft
Dew Point 53 °F
Humidity 96%
Rainfall 1.04 in
Snow Depth Not available.
UV 0.0 out of 12
Pollen Not available.
Air Quality Not available.
Flu Activity Not available.
SPECI EBFN 300503Z VRB02KT 7000 -TSRA FEW015CB BKN030 BKN080 12/11 Q1015 WHT WHT TEMPO GRN

More Conditions Fewer Conditions

Pressure 29.98 in
Visibility 4.3 miles
Clouds Few 1500 ft
Mostly Cloudy 3000 ft
Mostly Cloudy 8000 ft
Dew Point 53 °F
Humidity 96%
Rainfall 1.04 in
Snow Depth Not available.
UV 0.0 out of 12
Pollen Not available.
Air Quality Not available.
Flu Activity Not available.
SPECI EBFN 300503Z VRB02KT 7000 -TSRA FEW015CB BKN030 BKN080 12/11 Q1015 WHT WHT TEMPO GRN

More Conditions Fewer Conditions

10-Day Weather Forecast

×

Almanac

Astronomy

Jul. 30, 2015 Rise Set
Actual Time
Civil Twilight
Nautical Twilight
Astronomical Twilight
Moon
Length of Visible Light
Length of Day
Tomorrow will be .
, % of the Moon is Illuminated

Today's Extremes

Country Highs Country Lows

Community

WunderPhotos

Upload Photos

1,842,308 photos uploaded!

WunderBlogs® & News

Nearby

Air Quality

  Air Quality AQ Index Pollutant
Not available.

Snow Depth

Station Depth Elevation

Earthquake Activity

City Distance Mag. Time & Date
Minimum magnitude displayed is 2.5.

Coastal Water Temperatures

Place Temperature

Stations

Nearby Weather Stations

Station Location Temp. Windchill Dew Point Humidity Wind Precip. Elev Updated Type